Maljamar, NM

10:12 AM MDT on August 01, 2014 (GMT -0600)
Artesia Municipal (KATS) Elev 3540 ft | 32.85 °N, 104.47 °W | Change Station

Current weather conditions updated 17 minutes ago

Partly Cloudy
Partly Cloudy
72 °F
Feels Like 72 °F
N
9
Wind Variable Wind from ESE

Today is forecast to be Warmer than yesterday. Isolated thunderstorms tonight.

Today
High -- | Low -- °F
--% Chance of Precip.
Yesterday
High -- | Low -- °F
Precip. -- in
6:08 AM 7:53 PM
Waxing Crescent, 27% visible
Pressure 30.22 in
Visibility 10.0 miles
Clouds Few 7000 ft
Dew Point 63 °F
Humidity 73%
Rainfall 0.00 in
Snow Depth Not available.
UV 6 out of 12
Pollen 4.40 out of 12
Air Quality Not available.
Flu Activity Not available.
METAR KATS 011555Z AUTO 12008KT 10SM FEW070 22/17 A3022 RMK AO2

More Conditions Fewer Conditions

Pressure 30.22 in
Visibility 10.0 miles
Clouds Few 7000 ft
Dew Point 63 °F
Humidity 73%
Rainfall 0.00 in
Snow Depth Not available.
UV 6 out of 12
Pollen 4.40 out of 12
Air Quality Not available.
Flu Activity Not available.
METAR KATS 011555Z AUTO 12008KT 10SM FEW070 22/17 A3022 RMK AO2

More Conditions Fewer Conditions

10-Day Weather Forecast

Almanac

Astronomy

Aug. 01, 2014 Rise Set
Actual Time 6:08 AM MDT 7:53 PM MDT
Civil Twilight 5:41 AM MDT 8:20 PM MDT
Nautical Twilight 5:09 AM MDT 8:52 PM MDT
Astronomical Twilight 4:34 AM MDT 9:26 PM MDT
Moon 11:14 AM MDT 11:00 PM MDT
Length of Visible Light 14h 38m
Length of Day
13h 44m
Tomorrow will be 1m 31s shorter.
Waxing Crescent, 27% of the Moon is Illuminated
Today
Waxing Crescent
Aug 3
First Quarter
Aug 10
Full
Aug 17
Last Quarter
Aug 25
New

Today's Extremes

State Highs State Lows

Community

WunderPhotos

Upload Photos

1,739,625 photos uploaded!

Nearby

Snow Depth

Station Depth Elevation
Sierra Blanca 1 in 10280 ft
Wesner Springs 2 in 11120 ft
Elk Cabin 122 in 8210 ft
McKnight Cabin 0 in 9240 ft
Gallegos Peak 1 in 9800 ft

Earthquake Activity

City Distance Mag. Time & Date
No recent earthquake activity has been reported nearby.
Minimum magnitude displayed is 2.5.

Coastal Water Temperatures

Place Temperature
No Stations Reporting

Nearby Weather Stations

Station Location Temp. Dew Point Humidity Wind Precip. Elev Updated Type
RAWS CAPROCK NM, Maljamar, NM 68 °F 35 °F 30% South  at  7 mph 0.00 in / hr 4209 ft 8:40 AM MDT MADIS
Derrick Ranch, Lovington, NM 68.3 °F 60 °F 75% WSW  at  7.0 mph 0.00 in / hr 4072 ft 10:12 AM MDT Normal
Sixth Grade Academy, Lovington, NM 68.9 °F 60 °F 72% East  at  0.0 mph - / hr 3934 ft 9:18 AM MDT Normal

Show More Stations Show Fewer Stations